x

West Gulf - 207 Nm East Of Brownsville, Tx (42002) Wave Buoy

1:50am - Sat 20th Sep 2014 All times are CDT. -5 hours from GMT.

  • Sig Wave height 1.6ft
  • Swell Direction
  • Peak Period 5s
  • Average Period 4s
  • Wind
    9mph, 11mph gusts
  • Sea Temp 85°f
  • Air Temp 82°f
  • Sea Pressure 1010.9mb
  • West Gulf - 207 Nm East Of Brownsville, Tx
  • West Gulf - 207 Nm East Of Brownsville, Tx

More Historic Weather Station data

Upgrade to MSW Pro to gain access to the past 30 days of data for over 8000 Wavebouys and Weather Stations around the globe.

Join Pro

Comparision Forecast

View Surf forecast
   
Sat 09/20 1:50am 1.6ft 5s 4s 9 11 mph 1010.9mb 85f 82f
12:50am 1.6ft 5s 4s 9
mph
1011.2mb 85f 82f
Fri 09/19 11:50pm 2ft 5s 4s 7
mph
1011.9mb 86f 82f
10:50pm 2ft 5s 4s 7 9 mph 1012.1mb 86f 82f
9:50pm 2ft 5s 4s 2 4 mph 1011.4mb 86f 82f
8:50pm 2.5ft 5s 5s 18
mph
1008.9mb 86f 81f
7:50pm 2.5ft 5s 4s 4
mph
1010.9mb 86f 80f
6:50pm 2.5ft 5s 4s 9 11 mph 1011.3mb 86f 79f
5:50pm 3.5ft 5s 4s 11 16 mph 1011.3mb 86f 77f
4:50pm 3ft 5s 4s 22 25 mph 1010.9mb 86f 79f
3:50pm 3ft 5s 4s 7 11 mph 1010.6mb 86f 85f
2:50pm 3ft 5s 4s 13 16 mph 1010.4mb 86f 85f
1:50pm 3ft 5s 4s 16 18 mph 1010.7mb 86f 85f
12:50pm 3ft 5s 4s 11 16 mph 1011.3mb 86f 84f
11:50am 2.5ft 5s 4s 16 18 mph 1011.6mb 86f 85f
10:50am 2.5ft 5s 4s 13 16 mph 1011.7mb 86f 85f
9:50am 2.5ft 5s 4s 18 25 mph 1011.1mb 86f 81f
8:50am 3ft 5s 4s 11 16 mph 1011mb 86f 83f
7:50am 2.5ft 5s 4s 22 27 mph 1010.6mb 86f 82f
6:50am 2.5ft 5s 4s 13 18 mph 1010.2mb 86f 85f
5:50am 2.5ft 6s 4s 16 18 mph 1010.1mb 86f 85f
4:50am 2.5ft 5s 4s 16 18 mph 1010.1mb 86f 84f
3:50am 2.5ft 6s 4s 16 18 mph 1010.3mb 86f 84f
2:50am 2.5ft 5s 4s 13 16 mph 1010.8mb 86f 84f
1:50am 2ft 4s 4s 13 16 mph 1011mb 86f 84f
12:50am 2ft 4s 4s 13 18 mph 1011.5mb 86f 84f
Thu 09/18 11:50pm 1.6ft 4s 4s 11 13 mph 1011.9mb 86f 85f
10:50pm 2ft 5s 4s 11 13 mph 1011.8mb 86f 85f
9:50pm 1.6ft 4s 4s 9 13 mph 1011.4mb 85f 85f
8:50pm 1.6ft 4s 4s 4 7 mph 1011.3mb 85f 81f
7:50pm 1.6ft 4s 4s 7 9 mph 1010.5mb 86f 83f
6:50pm 1.6ft 4s 4s 7
mph
1010.3mb 86f 85f
5:50pm 1.6ft 4s 4s 4 7 mph 1009.9mb 86f 84f
4:50pm 2ft 4s 4s 4 7 mph 1009.9mb 86f 85f
3:50pm 1.6ft 4s 4s 11
mph
1009.9mb 86f 85f
2:50pm 2ft 4s 4s 11 16 mph 1010.5mb 86f 85f
1:50pm 1.6ft 3s 4s 13 16 mph 1011.3mb 86f 85f
12:50pm 1.6ft 6s 4s 9 11 mph 1012.1mb 86f 85f
11:50am 1.6ft 4s 4s 11 13 mph 1012.5mb 86f 85f
10:50am 1.6ft 4s 4s 11 13 mph 1013.1mb 86f 85f
9:50am 1.6ft 4s 4s 11 13 mph 1012.9mb 86f 84f
8:50am 1.6ft 4s 4s 7 9 mph 1012.6mb 86f 82f
7:50am 2ft 3s 4s 18 20 mph 1011.8mb 85f 80f
6:50am 1.6ft 5s 4s 9 11 mph 1011.8mb 86f 82f
5:50am 2ft 5s 3s 18 20 mph 1011.4mb 85f 80f
4:50am 1.6ft 5s 4s 20 27 mph 1011.3mb 86f 81f
3:50am 1.3ft 6s 4s 11 13 mph 1011.5mb 86f 84f
2:50am 1.3ft 6s 4s 9 11 mph 1012mb 86f 84f
1:50am 1.3ft 5s 4s 9 11 mph 1012.2mb 86f 84f
12:50am 1.6ft 5s 4s 9 11 mph 1012.3mb 86f 84f
Wed 09/17 11:50pm 1.6ft 6s 5s 7 9 mph 1012.6mb 86f 84f
10:50pm 1.3ft 6s 4s 7 9 mph 1013mb 86f 84f
9:50pm 1.3ft 6s 4s 4 7 mph 1013.2mb 86f 84f
8:50pm 1.3ft 6s 4s 4
mph
1013.2mb 86f 84f
7:50pm 1.6ft 6s 4s 2 4 mph 1013mb 86f 84f
6:50pm 1.6ft 7s 4s  -  2 mph 1012.6mb 86f 85f
5:50pm 1.6ft 6s 4s 2
mph
1012.6mb 86f 85f
4:50pm 1.6ft 7s 4s 4
mph
1012.4mb 86f 85f
3:50pm 1.6ft 6s 4s 7 9 mph 1012.5mb 86f 85f
2:50pm 1.6ft 7s 4s 7 9 mph 1013.2mb 86f 85f
1:50pm 1.6ft 6s 4s 9 13 mph 1013.6mb 86f 85f
12:50pm 1.6ft 6s 4s 9 13 mph 1014.2mb 86f 84f
11:50am 1.6ft 6s 4s 9 11 mph 1014.9mb 86f 84f
10:50am 1.6ft 6s 4s 9 11 mph 1015mb 86f 84f
9:50am 1.6ft 6s 4s 11 13 mph 1014.7mb 86f 84f
8:50am 1.6ft 6s 5s 11 13 mph 1014.3mb 85f 84f
7:50am 1.6ft 6s 5s 9 11 mph 1014.1mb 86f 84f
6:50am 1.6ft 6s 5s 9
mph
1013.9mb 86f 84f
5:50am 2ft 6s 5s 9 13 mph 1013.9mb 86f 84f
4:50am 2ft 5s 5s 9 11 mph 1013.9mb 85f 84f
3:50am 2ft 6s 5s 4 9 mph 1014.1mb 86f 84f
2:50am 2ft 7s 5s 7 9 mph 1014.7mb 86f 84f
1:50am 2ft 6s 5s 7 9 mph 1015.1mb 86f 83f
12:50am 2ft 6s 5s 7 9 mph 1015.5mb 86f 83f
Tue 09/16 11:50pm 2ft 5s 5s 7 9 mph 1015.6mb 86f 83f
10:50pm 2ft 6s 4s 7 9 mph 1016mb 86f 83f
9:50pm 2ft 5s 4s 7
mph
1016.1mb 86f 83f
8:50pm 2ft 5s 4s 7 9 mph 1015.7mb 86f 82f
7:50pm 2ft 7s 4s 7 9 mph 1015.4mb 86f 83f
6:50pm 2ft 6s 4s 9 16 mph 1015.2mb 86f 82f
5:50pm 2ft 5s 4s 4
mph
1014.9mb 86f 84f
4:50pm 2.5ft 5s 4s 7 9 mph 1015.1mb 86f 83f
3:50pm 2.5ft 6s 4s 9 11 mph 1015.2mb 86f 85f
2:50pm 2.5ft 7s 4s 9 11 mph 1015.8mb 86f 85f
1:50pm 2.5ft 5s 4s 9 11 mph 1016.1mb 86f 85f
12:50pm 2.5ft 6s 4s 11 13 mph 1016.7mb 86f 85f
11:50am 2.5ft 6s 4s 11 13 mph 1017.4mb 86f 85f
10:50am 3ft 6s 4s 13 16 mph 1017.7mb 86f 85f
9:50am 3ft 6s 4s 13 16 mph 1017.7mb 85f 85f
8:50am 3ft 6s 4s 16 18 mph 1017.5mb 85f 85f